createdAt,value
2024-04-30T00:00:24.335Z,536.00
2024-04-30T00:01:24.378Z,538.00
2024-04-30T00:02:24.349Z,538.00
2024-04-30T00:03:24.362Z,535.00
2024-04-30T00:04:24.376Z,536.00
2024-04-30T00:05:24.390Z,536.00
2024-04-30T00:06:24.348Z,534.00
2024-04-30T00:07:24.363Z,532.00
2024-04-30T00:08:24.339Z,530.00
2024-04-30T00:09:24.348Z,529.00
2024-04-30T00:10:24.388Z,530.00
2024-04-30T00:11:24.386Z,529.00
2024-04-30T00:12:24.401Z,528.00
2024-04-30T00:13:24.522Z,528.00
2024-04-30T00:14:24.497Z,528.00
2024-04-30T00:15:24.518Z,529.00
2024-04-30T00:16:24.654Z,529.00
2024-04-30T00:17:24.727Z,530.00
2024-04-30T00:18:24.720Z,530.00
2024-04-30T00:19:24.786Z,529.00
2024-04-30T00:20:24.845Z,528.00
2024-04-30T00:21:24.806Z,530.00
2024-04-30T00:22:24.939Z,531.00
2024-04-30T00:23:24.919Z,532.00
2024-04-30T00:24:24.984Z,532.00
2024-04-30T00:25:25.014Z,532.00
2024-04-30T00:26:25.116Z,531.00
2024-04-30T00:27:25.069Z,532.00
2024-04-30T00:28:25.412Z,532.00
2024-04-30T00:29:25.177Z,535.00
2024-04-30T00:30:25.226Z,536.00
2024-04-30T00:31:25.288Z,534.00
2024-04-30T00:32:25.430Z,534.00
2024-04-30T00:33:25.379Z,535.00
2024-04-30T00:34:25.381Z,535.00
2024-04-30T00:35:25.396Z,536.00
2024-04-30T00:36:25.449Z,532.00
2024-04-30T00:37:25.508Z,532.00
2024-04-30T00:38:25.546Z,533.00
2024-04-30T00:39:25.566Z,534.00
2024-04-30T00:40:25.670Z,533.00
2024-04-30T00:41:25.655Z,532.00
2024-04-30T00:42:25.699Z,531.00
2024-04-30T00:43:25.792Z,534.00
2024-04-30T00:44:25.783Z,533.00
2024-04-30T00:45:25.810Z,534.00
2024-04-30T00:46:25.879Z,530.00
2024-04-30T00:47:26.010Z,528.00
2024-04-30T00:48:27.322Z,528.00
2024-04-30T00:49:26.025Z,527.00
2024-04-30T00:50:26.019Z,530.00
2024-04-30T00:51:26.059Z,529.00
2024-04-30T00:52:26.146Z,530.00
2024-04-30T00:53:26.182Z,529.00
2024-04-30T00:54:26.215Z,528.00
2024-04-30T00:55:26.339Z,530.00
2024-04-30T00:56:26.267Z,530.00
2024-04-30T00:57:26.309Z,528.00
2024-04-30T00:58:26.865Z,527.00
2024-04-30T00:59:26.414Z,525.00
2024-04-30T01:00:26.450Z,527.00
2024-04-30T01:01:26.550Z,529.00
2024-04-30T01:02:26.569Z,527.00
2024-04-30T01:03:26.622Z,526.00
2024-04-30T01:04:26.673Z,529.00
2024-04-30T01:05:26.628Z,528.00
2024-04-30T01:06:26.683Z,530.00
2024-04-30T01:07:26.814Z,530.00
2024-04-30T01:08:26.838Z,531.00
2024-04-30T01:09:26.776Z,534.00
2024-04-30T01:10:26.849Z,534.00
2024-04-30T01:11:26.940Z,533.00
2024-04-30T01:12:26.922Z,533.00
2024-04-30T01:13:27.007Z,533.00
2024-04-30T01:14:27.012Z,533.00
2024-04-30T01:15:27.107Z,531.00
2024-04-30T01:16:27.130Z,532.00
2024-04-30T01:17:27.252Z,530.00
2024-04-30T01:18:27.363Z,528.00
2024-04-30T01:19:27.252Z,527.00
2024-04-30T01:20:27.290Z,525.00
2024-04-30T01:21:27.323Z,524.00
2024-04-30T01:22:27.438Z,524.00
2024-04-30T01:23:27.411Z,524.00
2024-04-30T01:24:27.450Z,525.00
2024-04-30T01:25:27.538Z,528.00
2024-04-30T01:26:27.526Z,529.00
2024-04-30T01:27:27.571Z,529.00
2024-04-30T01:28:27.898Z,528.00
2024-04-30T01:29:27.668Z,529.00
2024-04-30T01:30:27.710Z,529.00
2024-04-30T01:31:27.816Z,527.00
2024-04-30T01:32:27.861Z,529.00
2024-04-30T01:33:27.901Z,528.00
2024-04-30T01:34:27.926Z,530.00
2024-04-30T01:35:27.910Z,532.00
2024-04-30T01:36:27.947Z,533.00
2024-04-30T01:37:28.111Z,530.00
2024-04-30T01:38:28.025Z,530.00
2024-04-30T01:39:28.068Z,528.00
2024-04-30T01:40:28.146Z,529.00
2024-04-30T01:41:28.199Z,533.00
2024-04-30T01:42:28.196Z,535.00
2024-04-30T01:43:28.348Z,535.00
2024-04-30T01:44:28.288Z,535.00
2024-04-30T01:45:28.321Z,537.00
2024-04-30T01:46:28.388Z,536.00
2024-04-30T01:47:28.507Z,537.00
2024-04-30T01:48:28.476Z,534.00
2024-04-30T01:49:28.602Z,532.00
2024-04-30T01:50:28.556Z,533.00
2024-04-30T01:51:28.594Z,535.00
2024-04-30T01:52:28.696Z,535.00
2024-04-30T01:53:28.841Z,536.00
2024-04-30T01:54:28.689Z,535.00
2024-04-30T01:55:28.759Z,536.00
2024-04-30T01:56:28.799Z,533.00
2024-04-30T01:57:28.846Z,534.00
2024-04-30T01:58:28.916Z,534.00
2024-04-30T01:59:28.923Z,534.00
2024-04-30T02:00:28.977Z,536.00
2024-04-30T02:01:29.045Z,535.00
2024-04-30T02:02:29.125Z,536.00
2024-04-30T02:03:29.116Z,533.00
2024-04-30T02:04:35.901Z,533.00
2024-04-30T02:05:30.178Z,534.00
2024-04-30T02:06:29.134Z,533.00
2024-04-30T02:07:29.154Z,532.00
2024-04-30T02:08:29.145Z,531.00
2024-04-30T02:09:29.130Z,533.00
2024-04-30T02:10:29.195Z,534.00
2024-04-30T02:11:29.209Z,535.00
2024-04-30T02:12:29.171Z,537.00
2024-04-30T02:13:29.532Z,536.00
2024-04-30T02:14:29.132Z,538.00
2024-04-30T02:15:29.165Z,539.00
2024-04-30T02:16:29.222Z,537.00
2024-04-30T02:17:29.275Z,538.00
2024-04-30T02:18:29.364Z,537.00
2024-04-30T02:19:29.290Z,541.00
2024-04-30T02:20:29.230Z,542.00
2024-04-30T02:21:29.246Z,541.00
2024-04-30T02:22:29.343Z,540.00
2024-04-30T02:23:29.353Z,538.00
2024-04-30T02:24:29.360Z,535.00
2024-04-30T02:25:29.473Z,534.00
2024-04-30T02:26:29.462Z,534.00
2024-04-30T02:27:29.502Z,535.00
2024-04-30T02:28:30.024Z,536.00
2024-04-30T02:29:29.583Z,536.00
2024-04-30T02:30:29.662Z,536.00
2024-04-30T02:31:29.860Z,538.00
2024-04-30T02:32:29.775Z,539.00
2024-04-30T02:33:29.782Z,537.00
2024-04-30T02:34:29.947Z,537.00
2024-04-30T02:35:29.916Z,536.00
2024-04-30T02:36:29.920Z,536.00
2024-04-30T02:37:30.020Z,537.00
2024-04-30T02:38:30.424Z,537.00
2024-04-30T02:39:30.078Z,539.00
2024-04-30T02:40:30.173Z,539.00
2024-04-30T02:41:30.171Z,540.00
2024-04-30T02:42:30.239Z,540.00
2024-04-30T02:43:30.326Z,543.00
2024-04-30T02:44:30.341Z,544.00
2024-04-30T02:45:30.388Z,544.00
2024-04-30T02:46:30.566Z,541.00
2024-04-30T02:47:30.615Z,540.00
2024-04-30T02:48:30.922Z,540.00
2024-04-30T02:49:30.679Z,540.00
2024-04-30T02:50:30.609Z,540.00
2024-04-30T02:51:30.649Z,540.00
2024-04-30T02:52:30.747Z,544.00
2024-04-30T02:53:30.891Z,546.00
2024-04-30T02:54:30.815Z,543.00
2024-04-30T02:55:30.923Z,543.00
2024-04-30T02:56:30.925Z,542.00
2024-04-30T02:57:30.949Z,540.00
2024-04-30T02:58:31.114Z,538.00
2024-04-30T02:59:31.066Z,536.00
2024-04-30T03:00:31.146Z,534.00
2024-04-30T03:01:31.218Z,534.00
2024-04-30T03:02:31.238Z,534.00
2024-04-30T03:03:31.338Z,536.00
2024-04-30T03:04:31.340Z,536.00
2024-04-30T03:05:31.446Z,535.00
2024-04-30T03:06:31.390Z,537.00
2024-04-30T03:07:31.502Z,538.00
2024-04-30T03:08:31.505Z,540.00
2024-04-30T03:09:31.552Z,538.00
2024-04-30T03:10:31.735Z,537.00
2024-04-30T03:11:31.727Z,537.00
2024-04-30T03:12:31.715Z,537.00
2024-04-30T03:13:31.899Z,536.00
2024-04-30T03:14:31.775Z,534.00
2024-04-30T03:15:31.824Z,535.00
2024-04-30T03:16:31.915Z,537.00
2024-04-30T03:17:32.033Z,538.00
2024-04-30T03:18:31.982Z,538.00
2024-04-30T03:19:32.124Z,538.00
2024-04-30T03:20:32.072Z,536.00
2024-04-30T03:21:32.122Z,534.00
2024-04-30T03:22:32.251Z,535.00
2024-04-30T03:23:32.222Z,536.00
2024-04-30T03:24:32.275Z,534.00
2024-04-30T03:25:32.419Z,532.00
2024-04-30T03:26:32.441Z,531.00
2024-04-30T03:27:32.417Z,532.00
2024-04-30T03:28:32.898Z,534.00
2024-04-30T03:29:32.529Z,533.00
2024-04-30T03:30:32.664Z,533.00
2024-04-30T03:31:32.708Z,534.00
2024-04-30T03:32:32.783Z,535.00
2024-04-30T03:33:32.974Z,537.00
2024-04-30T03:34:32.808Z,536.00
2024-04-30T03:35:32.855Z,537.00
2024-04-30T03:36:32.901Z,537.00
2024-04-30T03:37:33.017Z,534.00
2024-04-30T03:38:32.982Z,536.00
2024-04-30T03:39:33.024Z,536.00
2024-04-30T03:40:33.113Z,535.00
2024-04-30T03:41:33.115Z,535.00
2024-04-30T03:42:33.180Z,537.00
2024-04-30T03:43:33.324Z,538.00
2024-04-30T03:44:33.261Z,537.00
2024-04-30T03:45:33.336Z,538.00
2024-04-30T03:46:33.497Z,541.00
2024-04-30T03:47:33.513Z,540.00
2024-04-30T03:48:33.934Z,539.00
2024-04-30T03:49:33.636Z,537.00
2024-04-30T03:50:33.594Z,535.00
2024-04-30T03:51:33.630Z,537.00
2024-04-30T03:52:33.848Z,538.00
2024-04-30T03:53:33.695Z,538.00
2024-04-30T03:54:33.776Z,537.00
2024-04-30T03:55:34.015Z,539.00
2024-04-30T03:56:33.899Z,537.00
2024-04-30T03:57:33.892Z,540.00
2024-04-30T03:58:34.424Z,540.00
2024-04-30T03:59:34.013Z,541.00
2024-04-30T04:00:34.092Z,540.00
2024-04-30T04:01:34.153Z,541.00
2024-04-30T04:02:34.175Z,543.00
2024-04-30T04:03:34.189Z,542.00
2024-04-30T04:04:34.326Z,539.00
2024-04-30T04:05:34.312Z,538.00
2024-04-30T04:06:34.352Z,542.00
2024-04-30T04:07:34.442Z,543.00
2024-04-30T04:08:34.430Z,545.00
2024-04-30T04:09:34.459Z,545.00
2024-04-30T04:10:34.555Z,542.00
2024-04-30T04:11:34.640Z,539.00
2024-04-30T04:12:34.620Z,539.00
2024-04-30T04:13:34.737Z,541.00
2024-04-30T04:14:34.736Z,543.00
2024-04-30T04:15:34.810Z,544.00
2024-04-30T04:16:42.539Z,537.00
2024-04-30T04:17:42.622Z,535.00
2024-04-30T04:18:42.548Z,539.00
2024-04-30T04:19:42.607Z,540.00
2024-04-30T04:20:42.548Z,540.00
2024-04-30T04:21:42.576Z,536.00
2024-04-30T04:22:42.602Z,539.00
2024-04-30T04:23:42.604Z,541.00
2024-04-30T04:24:42.551Z,541.00
2024-04-30T04:25:42.627Z,543.00
2024-04-30T04:26:42.569Z,545.00
2024-04-30T04:27:42.571Z,543.00
2024-04-30T04:28:42.684Z,541.00
2024-04-30T04:29:42.575Z,541.00
2024-04-30T04:30:42.574Z,543.00
2024-04-30T04:31:50.319Z,536.00
2024-04-30T04:32:50.293Z,537.00
2024-04-30T04:33:50.324Z,532.00
2024-04-30T04:34:50.316Z,531.00
2024-04-30T04:35:50.338Z,529.00
2024-04-30T04:36:50.328Z,529.00
2024-04-30T04:37:50.369Z,531.00
2024-04-30T04:38:50.355Z,530.00
2024-04-30T04:39:50.404Z,532.00
2024-04-30T04:40:50.402Z,531.00
2024-04-30T04:41:50.363Z,531.00
2024-04-30T04:42:50.309Z,533.00
2024-04-30T04:43:50.393Z,534.00
2024-04-30T04:44:50.349Z,535.00
2024-04-30T04:45:50.347Z,535.00
2024-04-30T04:46:50.342Z,538.00
2024-04-30T04:47:50.487Z,540.00
2024-04-30T04:48:50.321Z,541.00
2024-04-30T04:49:50.357Z,542.00
2024-04-30T04:50:50.314Z,542.00
2024-04-30T04:51:50.324Z,542.00
2024-04-30T04:52:50.329Z,541.00
2024-04-30T04:53:50.353Z,539.00
2024-04-30T04:54:50.310Z,537.00
2024-04-30T04:55:50.399Z,537.00
2024-04-30T04:56:50.352Z,537.00
2024-04-30T04:57:50.336Z,538.00
2024-04-30T04:58:50.351Z,540.00
2024-04-30T04:59:50.325Z,541.00
2024-04-30T05:00:50.433Z,541.00
2024-04-30T05:01:50.487Z,539.00
2024-04-30T05:02:50.373Z,541.00
2024-04-30T05:03:50.497Z,541.00
2024-04-30T05:04:50.381Z,541.00
2024-04-30T05:05:50.359Z,540.00
2024-04-30T05:06:51.503Z,539.00
2024-04-30T05:07:50.352Z,537.00
2024-04-30T05:08:50.396Z,533.00
2024-04-30T05:09:50.432Z,534.00
2024-04-30T05:10:50.553Z,533.00
2024-04-30T05:11:50.514Z,534.00
2024-04-30T05:12:50.547Z,535.00
2024-04-30T05:13:50.610Z,537.00
2024-04-30T05:14:53.472Z,536.00
2024-04-30T05:15:50.647Z,532.00
2024-04-30T05:16:50.740Z,533.00
2024-04-30T05:17:50.780Z,533.00
2024-04-30T05:18:50.682Z,533.00
2024-04-30T05:19:50.670Z,533.00
2024-04-30T05:20:50.650Z,531.00
2024-04-30T05:21:50.645Z,531.00
2024-04-30T05:22:50.668Z,531.00
2024-04-30T05:23:50.662Z,530.00
2024-04-30T05:24:50.670Z,531.00
2024-04-30T05:25:50.682Z,529.00
2024-04-30T05:26:50.659Z,528.00
2024-04-30T05:27:50.706Z,528.00
2024-04-30T05:28:50.707Z,527.00
2024-04-30T05:29:51.408Z,529.00
2024-04-30T05:30:50.664Z,531.00
2024-04-30T05:31:50.672Z,530.00
2024-04-30T05:32:50.708Z,528.00
2024-04-30T05:33:50.711Z,530.00
2024-04-30T05:34:50.743Z,530.00
2024-04-30T05:35:50.798Z,529.00
2024-04-30T05:36:50.810Z,528.00
2024-04-30T05:37:50.866Z,528.00
2024-04-30T05:38:50.901Z,530.00
2024-04-30T05:39:50.942Z,533.00
2024-04-30T05:40:50.987Z,535.00
2024-04-30T05:41:51.040Z,537.00
2024-04-30T05:42:51.058Z,539.00
2024-04-30T05:43:51.105Z,538.00
2024-04-30T05:44:51.126Z,539.00
2024-04-30T05:45:51.171Z,540.00
2024-04-30T05:46:51.263Z,553.00
2024-04-30T05:47:51.248Z,573.00
2024-04-30T05:48:51.305Z,584.00
2024-04-30T05:49:51.357Z,582.00
2024-04-30T05:50:51.387Z,573.00
2024-04-30T05:51:51.406Z,579.00
2024-04-30T05:52:51.425Z,683.00
2024-04-30T05:53:56.234Z,725.00
2024-04-30T05:54:51.465Z,822.00
2024-04-30T05:55:51.472Z,830.00
2024-04-30T05:56:52.406Z,837.00
2024-04-30T05:57:52.383Z,853.00
2024-04-30T05:58:51.463Z,882.00
2024-04-30T05:59:51.474Z,916.00
2024-04-30T06:00:51.522Z,935.00
2024-04-30T06:01:51.567Z,1037.00
2024-04-30T06:02:51.486Z,1050.00
2024-04-30T06:03:51.962Z,1065.00
2024-04-30T06:04:51.544Z,1152.00
2024-04-30T06:05:51.469Z,1176.00
2024-04-30T06:06:51.482Z,1277.00
2024-04-30T06:07:51.482Z,1299.00
2024-04-30T06:08:51.499Z,1347.00
2024-04-30T06:09:51.501Z,1435.00
2024-04-30T06:10:51.767Z,1461.00
2024-04-30T06:11:51.655Z,1482.00
2024-04-30T06:12:51.722Z,1497.00
2024-04-30T06:13:51.764Z,1523.00
2024-04-30T06:14:51.841Z,1562.00
2024-04-30T06:15:51.948Z,1592.00
2024-04-30T06:16:51.999Z,1584.00
2024-04-30T06:17:52.113Z,1585.00
2024-04-30T06:18:52.135Z,1576.00
2024-04-30T06:19:52.192Z,1577.00
2024-04-30T06:20:52.232Z,1576.00
2024-04-30T06:21:52.309Z,1580.00
2024-04-30T06:22:52.377Z,1587.00
2024-04-30T06:23:52.480Z,1587.00
2024-04-30T06:24:52.484Z,1592.00
2024-04-30T06:25:52.564Z,1601.00
2024-04-30T06:26:52.582Z,1617.00
2024-04-30T06:27:52.657Z,1617.00
2024-04-30T06:28:53.020Z,1617.00
2024-04-30T06:29:52.774Z,1613.00
2024-04-30T06:30:52.816Z,1621.00
2024-04-30T06:31:52.851Z,1623.00
2024-04-30T06:32:52.944Z,1623.00
2024-04-30T06:33:53.665Z,1626.00
2024-04-30T06:34:53.094Z,1631.00
2024-04-30T06:35:53.046Z,1633.00
2024-04-30T06:36:53.088Z,1352.00
2024-04-30T06:37:53.172Z,1504.00
2024-04-30T06:38:53.199Z,1551.00
2024-04-30T06:39:53.316Z,1551.00
2024-04-30T06:40:53.450Z,1526.00
2024-04-30T06:41:53.374Z,1518.00
2024-04-30T06:42:53.467Z,1522.00
2024-04-30T06:43:53.505Z,1526.00
2024-04-30T06:44:53.600Z,1530.00
2024-04-30T06:45:53.587Z,1537.00
2024-04-30T06:46:53.634Z,1543.00
2024-04-30T06:47:53.786Z,1547.00
2024-04-30T06:48:53.768Z,1557.00
2024-04-30T06:49:53.840Z,1561.00
2024-04-30T06:50:53.832Z,1562.00
2024-04-30T06:51:53.866Z,1680.00
2024-04-30T06:52:53.958Z,1621.00
2024-04-30T06:53:54.399Z,1596.00
2024-04-30T06:54:53.997Z,1225.00
2024-04-30T06:55:56.370Z,1379.00
2024-04-30T06:56:54.204Z,1410.00
2024-04-30T06:57:54.239Z,1161.00
2024-04-30T06:58:54.334Z,1218.00
2024-04-30T06:59:54.341Z,1220.00
2024-04-30T07:00:54.407Z,1277.00
2024-04-30T07:01:54.437Z,1336.00
2024-04-30T07:02:54.503Z,1487.00
2024-04-30T07:03:54.950Z,1522.00
2024-04-30T07:04:54.634Z,1522.00
2024-04-30T07:05:54.591Z,1531.00
2024-04-30T07:06:54.668Z,1641.00
2024-04-30T07:07:56.099Z,1606.00
2024-04-30T07:08:54.938Z,1608.00
2024-04-30T07:09:54.736Z,1598.00
2024-04-30T07:10:54.872Z,1593.00
2024-04-30T07:11:54.804Z,1601.00
2024-04-30T07:12:54.819Z,1602.00
2024-04-30T07:13:54.815Z,1599.00
2024-04-30T07:14:54.840Z,1592.00
2024-04-30T07:15:54.875Z,1604.00
2024-04-30T07:17:02.539Z,1602.00
2024-04-30T07:17:56.017Z,1605.00
2024-04-30T07:18:54.929Z,1605.00
2024-04-30T07:19:54.996Z,1607.00
2024-04-30T07:20:54.933Z,1611.00
2024-04-30T07:21:54.929Z,1626.00
2024-04-30T07:22:54.988Z,1632.00
2024-04-30T07:23:54.972Z,1640.00
2024-04-30T07:24:54.966Z,1647.00
2024-04-30T07:25:54.987Z,1653.00
2024-04-30T07:26:55.033Z,1702.00
2024-04-30T07:27:55.127Z,1748.00
2024-04-30T07:28:55.116Z,1754.00
2024-04-30T07:29:55.158Z,1764.00
2024-04-30T07:30:55.176Z,1746.00
2024-04-30T07:31:55.289Z,1741.00
2024-04-30T07:32:55.336Z,1734.00
2024-04-30T07:33:55.472Z,1727.00
2024-04-30T07:34:55.344Z,1729.00
2024-04-30T07:35:55.379Z,1728.00
2024-04-30T07:36:55.421Z,1735.00
2024-04-30T07:37:55.480Z,1737.00
2024-04-30T07:38:55.558Z,1750.00
2024-04-30T07:39:55.608Z,1761.00
2024-04-30T07:40:55.677Z,1779.00
2024-04-30T07:41:55.771Z,1789.00
2024-04-30T07:42:55.846Z,1800.00
2024-04-30T07:43:55.948Z,1804.00
2024-04-30T07:44:55.928Z,1797.00
2024-04-30T07:45:56.001Z,1800.00
2024-04-30T07:46:56.269Z,1801.00
2024-04-30T07:47:56.164Z,1742.00
2024-04-30T07:48:56.481Z,1732.00
2024-04-30T07:49:56.229Z,1394.00
2024-04-30T07:50:56.309Z,1652.00
2024-04-30T07:51:56.377Z,1675.00
2024-04-30T07:52:56.434Z,1695.00
2024-04-30T07:53:56.977Z,1693.00
2024-04-30T07:54:59.709Z,1720.00
2024-04-30T07:55:56.587Z,1739.00
2024-04-30T07:56:56.560Z,1693.00
2024-04-30T07:57:56.578Z,1788.00
2024-04-30T07:58:56.581Z,1935.00
2024-04-30T07:59:56.574Z,1870.00
2024-04-30T08:00:56.581Z,1964.00
2024-04-30T08:01:56.681Z,2009.00
2024-04-30T08:02:56.808Z,1947.00
2024-04-30T08:03:56.671Z,2060.00
2024-04-30T08:04:56.602Z,2030.00
2024-04-30T08:06:01.219Z,2091.00
2024-04-30T08:06:57.602Z,2193.00
2024-04-30T08:07:56.574Z,2232.00
2024-04-30T08:08:56.577Z,2241.00
2024-04-30T08:09:56.601Z,2218.00
2024-04-30T08:10:56.620Z,2181.00
2024-04-30T08:11:56.613Z,2107.00
2024-04-30T08:12:56.609Z,2077.00
2024-04-30T08:13:56.664Z,1971.00
2024-04-30T08:14:56.616Z,1894.00
2024-04-30T08:15:56.607Z,1951.00
2024-04-30T08:16:56.787Z,1943.00
2024-04-30T08:17:56.685Z,1936.00
2024-04-30T08:19:01.817Z,1923.00
2024-04-30T08:20:03.132Z,1694.00
2024-04-30T08:20:57.645Z,1785.00
2024-04-30T08:21:56.656Z,1762.00
2024-04-30T08:22:56.624Z,1760.00
2024-04-30T08:23:56.665Z,1774.00
2024-04-30T08:24:56.636Z,1799.00
2024-04-30T08:25:56.628Z,1790.00
2024-04-30T08:26:56.635Z,1666.00
2024-04-30T08:27:56.633Z,1619.00
2024-04-30T08:28:56.656Z,1612.00
2024-04-30T08:29:56.662Z,1502.00
2024-04-30T08:30:56.619Z,1519.00
2024-04-30T08:31:56.650Z,1525.00
2024-04-30T08:32:56.734Z,1527.00
2024-04-30T08:33:56.715Z,1535.00
2024-04-30T08:34:56.647Z,1548.00
2024-04-30T08:35:56.638Z,1502.00
2024-04-30T08:36:56.699Z,1548.00
2024-04-30T08:38:00.976Z,1534.00
2024-04-30T08:38:57.676Z,1475.00
2024-04-30T08:39:56.668Z,1438.00
2024-04-30T08:40:56.686Z,1391.00
2024-04-30T08:41:56.707Z,1384.00
2024-04-30T08:42:56.669Z,1242.00
2024-04-30T08:43:56.660Z,1121.00
2024-04-30T08:44:59.331Z,988.00
2024-04-30T08:45:56.667Z,992.00
2024-04-30T08:46:56.747Z,931.00
2024-04-30T08:47:56.766Z,937.00
2024-04-30T08:48:56.693Z,950.00
2024-04-30T08:50:01.347Z,956.00
2024-04-30T08:50:57.807Z,1051.00
2024-04-30T08:51:57.692Z,1185.00
2024-04-30T08:52:56.690Z,1198.00
2024-04-30T08:53:56.990Z,1102.00
2024-04-30T08:54:56.701Z,1183.00
2024-04-30T08:55:56.678Z,1183.00
2024-04-30T08:56:56.719Z,1342.00
2024-04-30T08:57:56.722Z,1353.00
2024-04-30T08:58:56.694Z,1425.00
2024-04-30T08:59:56.719Z,1438.00
2024-04-30T09:00:56.737Z,1505.00
2024-04-30T09:01:56.732Z,1291.00
2024-04-30T09:02:57.894Z,1268.00
2024-04-30T09:03:56.883Z,1451.00
2024-04-30T09:04:56.787Z,1541.00
2024-04-30T09:05:56.751Z,1515.00
2024-04-30T09:06:56.747Z,1359.00
2024-04-30T09:07:56.722Z,1222.00
2024-04-30T09:08:57.037Z,1265.00
2024-04-30T09:09:56.729Z,1278.00
2024-04-30T09:10:56.858Z,1279.00
2024-04-30T09:11:56.794Z,1174.00
2024-04-30T09:12:56.726Z,1471.00
2024-04-30T09:13:57.005Z,1508.00
2024-04-30T09:14:56.765Z,1530.00
2024-04-30T09:15:56.742Z,1516.00
2024-04-30T09:16:56.959Z,1388.00
2024-04-30T09:17:56.809Z,1311.00
2024-04-30T09:18:56.744Z,1312.00
2024-04-30T09:19:56.756Z,1423.00
2024-04-30T09:20:59.243Z,1289.00
2024-04-30T09:21:57.788Z,1321.00
2024-04-30T09:22:56.772Z,1276.00
2024-04-30T09:23:56.746Z,1404.00
2024-04-30T09:24:56.736Z,1546.00
2024-04-30T09:25:56.786Z,1635.00
2024-04-30T09:26:56.762Z,1250.00
2024-04-30T09:27:56.747Z,1598.00
2024-04-30T09:28:56.767Z,1633.00
2024-04-30T09:29:56.769Z,1613.00
2024-04-30T09:30:56.771Z,1593.00
2024-04-30T09:31:56.783Z,1503.00
2024-04-30T09:32:56.841Z,1620.00
2024-04-30T09:33:56.995Z,1338.00
2024-04-30T09:34:56.787Z,1308.00
2024-04-30T09:35:56.828Z,1391.00
2024-04-30T09:36:56.780Z,1323.00
2024-04-30T09:37:56.827Z,1315.00
2024-04-30T09:38:56.787Z,1241.00
2024-04-30T09:39:56.778Z,1301.00
2024-04-30T09:40:56.783Z,1311.00
2024-04-30T09:41:56.804Z,1316.00
2024-04-30T09:42:56.816Z,1318.00
2024-04-30T09:43:56.817Z,1312.00
2024-04-30T09:44:57.037Z,1318.00
2024-04-30T09:45:56.883Z,1319.00
2024-04-30T09:46:56.950Z,1356.00
2024-04-30T09:47:56.857Z,1358.00
2024-04-30T09:48:56.811Z,1310.00
2024-04-30T09:49:57.039Z,1315.00
2024-04-30T09:50:56.838Z,1234.00
2024-04-30T09:51:56.825Z,1308.00
2024-04-30T09:52:56.824Z,1261.00
2024-04-30T09:53:56.890Z,1112.00
2024-04-30T09:54:56.908Z,1255.00
2024-04-30T09:55:56.970Z,1272.00
2024-04-30T09:56:56.979Z,1156.00
2024-04-30T09:57:57.033Z,1176.00
2024-04-30T09:58:57.062Z,1082.00
2024-04-30T09:59:57.187Z,1018.00
2024-04-30T10:00:57.191Z,936.00
2024-04-30T10:01:57.346Z,943.00
2024-04-30T10:02:57.319Z,929.00
2024-04-30T10:03:57.371Z,912.00
2024-04-30T10:04:57.612Z,854.00
2024-04-30T10:05:57.474Z,881.00
2024-04-30T10:06:57.541Z,838.00
2024-04-30T10:07:57.572Z,812.00
2024-04-30T10:08:57.667Z,798.00
2024-04-30T10:09:58.023Z,786.00
2024-04-30T10:10:57.793Z,788.00
2024-04-30T10:11:57.872Z,780.00
2024-04-30T10:12:57.944Z,772.00
2024-04-30T10:13:57.998Z,767.00
2024-04-30T10:14:58.513Z,754.00
2024-04-30T10:15:58.180Z,746.00
2024-04-30T10:16:58.278Z,739.00
2024-04-30T10:17:58.231Z,736.00
2024-04-30T10:18:58.245Z,729.00
2024-04-30T10:19:58.543Z,733.00
2024-04-30T10:20:58.319Z,740.00
2024-04-30T10:21:58.387Z,744.00
2024-04-30T10:22:58.342Z,755.00
2024-04-30T10:23:58.382Z,765.00
2024-04-30T10:24:58.403Z,766.00
2024-04-30T10:25:58.484Z,755.00
2024-04-30T10:26:58.420Z,744.00
2024-04-30T10:27:58.479Z,709.00
2024-04-30T10:28:58.713Z,699.00
2024-04-30T10:29:58.459Z,693.00
2024-04-30T10:30:58.507Z,693.00
2024-04-30T10:31:59.452Z,698.00
2024-04-30T10:32:58.520Z,689.00
2024-04-30T10:33:58.552Z,684.00
2024-04-30T10:34:58.573Z,678.00
2024-04-30T10:35:58.594Z,675.00
2024-04-30T10:36:59.495Z,666.00
2024-04-30T10:38:01.573Z,666.00
2024-04-30T10:38:58.744Z,661.00
2024-04-30T10:39:59.080Z,659.00
2024-04-30T10:40:58.745Z,652.00
2024-04-30T10:41:58.712Z,649.00
2024-04-30T10:42:58.749Z,626.00
2024-04-30T10:44:00.508Z,630.00
2024-04-30T10:44:59.047Z,623.00
2024-04-30T10:45:58.760Z,612.00
2024-04-30T10:46:58.742Z,602.00
2024-04-30T10:47:58.951Z,602.00
2024-04-30T10:48:58.755Z,601.00
2024-04-30T10:50:11.753Z,598.00
2024-04-30T10:50:59.760Z,595.00
2024-04-30T10:51:58.738Z,590.00
2024-04-30T10:52:58.743Z,588.00
2024-04-30T10:53:58.792Z,585.00
2024-04-30T10:54:59.046Z,587.00
2024-04-30T10:56:00.684Z,587.00
2024-04-30T10:56:58.787Z,591.00
2024-04-30T10:57:58.779Z,589.00
2024-04-30T10:58:58.779Z,586.00
2024-04-30T10:59:59.032Z,583.00
2024-04-30T11:00:58.826Z,593.00
2024-04-30T11:01:58.793Z,600.00
2024-04-30T11:02:58.851Z,597.00
2024-04-30T11:03:58.823Z,598.00
2024-04-30T11:04:59.077Z,601.00
2024-04-30T11:05:58.938Z,602.00
2024-04-30T11:06:58.990Z,600.00
2024-04-30T11:07:58.977Z,595.00
2024-04-30T11:08:58.999Z,595.00
2024-04-30T11:09:59.045Z,602.00
2024-04-30T11:10:59.124Z,609.00
2024-04-30T11:11:59.207Z,612.00
2024-04-30T11:12:59.114Z,607.00
2024-04-30T11:14:00.833Z,607.00
2024-04-30T11:14:59.188Z,613.00
2024-04-30T11:16:07.419Z,623.00
2024-04-30T11:17:00.267Z,630.00
2024-04-30T11:17:59.419Z,623.00
2024-04-30T11:18:59.249Z,623.00
2024-04-30T11:19:59.601Z,621.00
2024-04-30T11:20:59.277Z,617.00
2024-04-30T11:21:59.297Z,620.00
2024-04-30T11:22:59.265Z,619.00
2024-04-30T11:23:59.228Z,620.00
2024-04-30T11:24:59.226Z,620.00
2024-04-30T11:25:59.305Z,623.00
2024-04-30T11:26:59.250Z,625.00
2024-04-30T11:27:59.362Z,621.00
2024-04-30T11:29:09.554Z,618.00
2024-04-30T11:30:00.627Z,619.00
2024-04-30T11:30:59.239Z,613.00
2024-04-30T11:31:59.287Z,612.00
2024-04-30T11:32:59.301Z,611.00
2024-04-30T11:33:59.270Z,608.00
2024-04-30T11:34:59.251Z,613.00
2024-04-30T11:35:59.271Z,616.00
2024-04-30T11:36:59.260Z,613.00
2024-04-30T11:37:59.558Z,612.00
2024-04-30T11:38:59.284Z,610.00
2024-04-30T11:39:59.623Z,614.00
2024-04-30T11:40:59.318Z,614.00
2024-04-30T11:42:07.003Z,618.00
2024-04-30T11:43:00.308Z,619.00
2024-04-30T11:43:59.267Z,610.00
2024-04-30T11:44:59.593Z,608.00
2024-04-30T11:46:00.058Z,607.00
2024-04-30T11:46:59.308Z,606.00
2024-04-30T11:47:59.343Z,609.00
2024-04-30T11:48:59.317Z,611.00
2024-04-30T11:49:59.591Z,616.00
2024-04-30T11:50:59.299Z,618.00
2024-04-30T11:51:59.324Z,616.00
2024-04-30T11:52:59.383Z,613.00
2024-04-30T11:53:59.299Z,613.00
2024-04-30T11:54:59.306Z,613.00
2024-04-30T11:55:59.313Z,615.00
2024-04-30T11:56:59.388Z,615.00
2024-04-30T11:57:59.356Z,617.00
2024-04-30T11:58:59.439Z,617.00
2024-04-30T11:59:59.582Z,616.00
2024-04-30T12:00:59.616Z,614.00
2024-04-30T12:01:59.648Z,613.00
2024-04-30T12:02:59.649Z,610.00
2024-04-30T12:03:59.665Z,608.00
2024-04-30T12:04:59.841Z,607.00
2024-04-30T12:05:59.785Z,606.00
2024-04-30T12:06:59.795Z,604.00
2024-04-30T12:07:59.837Z,604.00
2024-04-30T12:08:59.900Z,606.00
2024-04-30T12:09:59.955Z,606.00
2024-04-30T12:11:00.131Z,607.00
2024-04-30T12:12:00.032Z,605.00
2024-04-30T12:13:00.084Z,607.00
2024-04-30T12:14:00.151Z,607.00
2024-04-30T12:15:00.185Z,608.00
2024-04-30T12:16:00.270Z,607.00
2024-04-30T12:17:00.388Z,611.00
2024-04-30T12:18:00.462Z,610.00
2024-04-30T12:19:00.447Z,608.00
2024-04-30T12:20:00.348Z,608.00
2024-04-30T12:21:00.401Z,608.00
2024-04-30T12:22:00.407Z,605.00